Main page
Satellite images 15-day forecastsClimateMarine weather Cyclones Lightning AirportsFAQ Newsletter About
Weather : Europe Africa North America South America Asia Australia-Oceania Others
Languages Contact

Eleusina, Greece

latitude: 38-04N, longitude: 023-33E, elevation: 44 m


METAR: LGEL 192120Z 00000KT 9999 FEW020 11/07 Q1014
short-TAF: out of date (16763 hours)
long-TAF: LGEL 191700Z 1918/2018 22008KT 9999 FEW020

Time: 01:09 (22:09 UTC)

Current weather observation

The report was made 49 minutes ago, at 21:20 UTC  
Wind calm
Temperature 11°C
Humidity 76%
Pressure 1014 hPa
Visibility 10 km or more
Few clouds at a height of 2000 ft

Change units

Forecast

The report was made 4 hours and 57 minutes ago, at 17:12 UTC  
Forecast valid from 19 at 18 UTC to 20 at 18 UTC
Wind 08 kt from southwest
Visibility 10 km or more
Few clouds at a height of 2000 ft
The information on this site is subject to a disclaimer
Weather : Europe Africa North America South America Asia Australia-Oceania Others
Satellite images 15-day forecastsClimateMarine weather Cyclones Lightning AirportsFAQ Languages Contact Newsletter About